Time;durP1;ratioP1;P1;durP2;ratioP2;P2;SDS_P1;SDS_P2;PMS_P1;PMS_P2;Temp;Humidity;BMP_temperature;BMP_pressure;BME280_temperature;BME280_humidity;BME280_pressure;Samples;Min_cycle;Max_cycle;Signal;HPM_P1;HPM_P2
2024/03/09 00:00:42;;;;;;;15.00;7.15;;;;;;;0.86;100.00;94981.72;1039248;28;20702;-66
2024/03/09 00:01:34;;;;;;;13.98;7.20;;;;;;;0.89;100.00;94990.84;1039326;28;20263;-66
2024/03/09 00:02:23;;;;;;;13.90;7.03;;;;;;;0.90;100.00;94984.66;1039218;28;20270;-65
2024/03/09 00:03:13;;;;;;;15.57;7.70;;;;;;;0.90;100.00;94989.81;1039423;28;20306;-66
2024/03/09 00:04:02;;;;;;;18.08;7.68;;;;;;;0.90;100.00;94984.66;1039028;28;20314;-65
2024/03/09 00:04:51;;;;;;;19.00;7.13;;;;;;;0.89;100.00;94988.25;1039254;28;20823;-65
2024/03/09 00:05:40;;;;;;;14.30;7.35;;;;;;;0.88;100.00;94984.09;1039176;28;20295;-66
2024/03/09 00:06:29;;;;;;;15.80;7.75;;;;;;;0.89;100.00;94996.00;1039134;28;20347;-66
2024/03/09 00:07:18;;;;;;;15.27;7.65;;;;;;;0.89;100.00;94996.00;1039344;28;20684;-66
2024/03/09 00:08:08;;;;;;;14.63;7.28;;;;;;;0.89;100.00;94990.84;1039167;28;20683;-66
2024/03/09 00:08:59;;;;;;;10.95;6.55;;;;;;;0.89;100.00;94996.78;1034904;28;20300;-65
2024/03/09 00:09:48;;;;;;;16.45;7.93;;;;;;;0.87;100.00;94998.81;1034833;28;20116;-66
2024/03/09 00:10:38;;;;;;;11.68;6.47;;;;;;;0.86;100.00;94999.03;1038632;28;20048;-65
2024/03/09 00:11:26;;;;;;;15.65;8.60;;;;;;;0.84;100.00;94998.44;1034763;28;20268;-67
2024/03/09 00:12:19;;;;;;;12.98;6.97;;;;;;;0.83;100.00;95007.19;1038325;28;20275;-66
2024/03/09 00:13:10;;;;;;;14.88;7.07;;;;;;;0.83;100.00;95007.97;1038970;28;20342;-66
2024/03/09 00:13:59;;;;;;;13.57;7.22;;;;;;;0.83;100.00;95013.16;1039015;28;20263;-65
2024/03/09 00:14:49;;;;;;;14.77;7.45;;;;;;;0.84;100.00;95019.09;1039159;28;20263;-67
2024/03/09 00:15:42;;;;;;;13.60;6.93;;;;;;;0.81;100.00;95019.56;1039295;28;20263;-66
2024/03/09 00:16:32;;;;;;;14.93;7.25;;;;;;;0.80;100.00;95017.97;1038865;28;20330;-66
2024/03/09 00:17:21;;;;;;;13.77;6.75;;;;;;;0.82;100.00;95015.97;1034795;28;20347;-67
2024/03/09 00:18:10;;;;;;;13.25;7.47;;;;;;;0.80;100.00;95023.91;1034852;28;20271;-66
2024/03/09 00:19:03;;;;;;;14.88;7.53;;;;;;;0.80;100.00;95023.13;1038485;28;20267;-65
2024/03/09 00:19:52;;;;;;;14.50;7.38;;;;;;;0.75;100.00;95020.44;1039403;28;20687;-66
2024/03/09 00:20:42;;;;;;;16.67;6.82;;;;;;;0.76;100.00;95015.03;1038782;28;20343;-67
2024/03/09 00:21:31;;;;;;;15.20;7.18;;;;;;;0.77;100.00;95016.63;1038890;28;20255;-66
2024/03/09 00:22:20;;;;;;;18.15;7.97;;;;;;;0.77;100.00;95023.56;1038513;28;20103;-66
2024/03/09 00:23:10;;;;;;;13.02;7.10;;;;;;;0.75;100.00;95025.59;1038665;28;20251;-66
2024/03/09 00:23:59;;;;;;;15.80;7.22;;;;;;;0.73;100.00;95018.06;1038295;28;20290;-66
2024/03/09 00:24:49;;;;;;;13.45;7.38;;;;;;;0.72;100.00;95021.66;1038801;28;20361;-66
2024/03/09 00:25:38;;;;;;;16.23;7.75;;;;;;;0.72;100.00;95018.28;1039178;28;20262;-66
2024/03/09 00:26:26;;;;;;;15.88;7.47;;;;;;;0.68;100.00;95026.47;1038748;28;20321;-66
2024/03/09 00:27:18;;;;;;;16.67;7.32;;;;;;;0.66;100.00;95028.47;1037867;28;21135;-66
2024/03/09 00:28:07;;;;;;;15.88;7.18;;;;;;;0.65;100.00;95026.09;1038411;28;20263;-67
2024/03/09 00:28:57;;;;;;;13.18;7.45;;;;;;;0.63;100.00;95023.72;1034916;28;20364;-66
2024/03/09 00:29:46;;;;;;;16.50;7.35;;;;;;;0.64;100.00;95020.16;1038986;28;20310;-66
2024/03/09 00:30:35;;;;;;;12.85;6.70;;;;;;;0.63;100.00;95020.38;1038823;28;20264;-68
2024/03/09 00:31:24;;;;;;;12.98;6.68;;;;;;;0.61;100.00;95023.19;1039050;28;20263;-66
2024/03/09 00:32:13;;;;;;;14.73;7.07;;;;;;;0.63;100.00;95031.47;1039441;28;20262;-67
2024/03/09 00:33:05;;;;;;;14.15;7.03;;;;;;;0.61;100.00;95028.34;1033240;28;20284;-66
2024/03/09 00:33:55;;;;;;;14.48;6.90;;;;;;;0.59;100.00;95030.34;1028672;28;20313;-65
2024/03/09 00:34:43;;;;;;;15.05;7.38;;;;;;;0.56;100.00;95023.03;1037020;28;20362;-67
2024/03/09 00:35:34;;;;;;;15.27;7.32;;;;;;;0.53;100.00;95027.84;1038911;28;20259;-66
2024/03/09 00:36:23;;;;;;;13.30;7.35;;;;;;;0.51;100.00;95025.50;1039388;28;20694;-67
2024/03/09 00:37:13;;;;;;;15.55;7.07;;;;;;;0.50;100.00;95017.94;1039296;28;20044;-67
2024/03/09 00:38:03;;;;;;;15.98;6.90;;;;;;;0.47;100.00;95026.94;1035999;28;20260;-67
2024/03/09 00:38:53;;;;;;;15.25;7.65;;;;;;;0.43;100.00;95020.59;1031228;28;20621;-68
2024/03/09 00:39:42;;;;;;;14.60;6.90;;;;;;;0.42;100.00;95019.03;1034913;28;20120;-66
2024/03/09 00:40:31;;;;;;;12.77;6.32;;;;;;;0.41;100.00;95020.84;1039090;28;20675;-67
2024/03/09 00:41:20;;;;;;;12.27;7.13;;;;;;;0.39;100.00;95022.84;1038915;28;20271;-65
2024/03/09 00:42:14;;;;;;;15.98;7.30;;;;;;;0.42;100.00;95021.63;1034665;28;20403;-66
2024/03/09 00:43:06;;;;;;;12.88;6.78;;;;;;;0.40;100.00;95018.44;1034869;28;20331;-68
2024/03/09 00:43:55;;;;;;;14.25;7.57;;;;;;;0.39;100.00;95022.84;1038041;28;20271;-69
2024/03/09 00:44:45;;;;;;;13.95;7.05;;;;;;;0.38;100.00;95015.31;1039066;28;20275;-66
2024/03/09 00:45:34;;;;;;;14.45;7.95;;;;;;;0.37;100.00;95024.03;1038782;28;20266;-66
2024/03/09 00:46:23;;;;;;;11.48;6.93;;;;;;;0.36;100.00;95018.09;1038842;28;20343;-67
2024/03/09 00:47:14;;;;;;;14.05;7.22;;;;;;;0.38;100.00;95015.31;1039122;28;20279;-66
2024/03/09 00:48:03;;;;;;;13.15;6.85;;;;;;;0.38;100.00;95017.91;1038778;28;20707;-67
2024/03/09 00:48:52;;;;;;;15.70;8.45;;;;;;;0.37;100.00;95019.69;1038718;28;20330;-66
2024/03/09 00:49:41;;;;;;;15.25;8.02;;;;;;;0.37;100.00;95016.31;1039196;28;20794;-69
2024/03/09 00:50:31;;;;;;;14.68;7.75;;;;;;;0.36;100.00;95015.53;1039026;28;20275;-65
2024/03/09 00:51:20;;;;;;;12.93;7.20;;;;;;;0.37;100.00;95019.69;1034243;28;20252;-67
2024/03/09 00:52:10;;;;;;;15.38;7.15;;;;;;;0.36;100.00;95025.06;1035710;28;20692;-67
2024/03/09 00:52:59;;;;;;;13.95;6.82;;;;;;;0.35;100.00;95021.69;1039165;28;20874;-66
2024/03/09 00:53:48;;;;;;;18.15;7.63;;;;;;;0.35;100.00;95033.81;1039329;28;20041;-66
2024/03/09 00:54:37;;;;;;;16.10;8.00;;;;;;;0.33;100.00;95028.06;1039176;28;20338;-66
2024/03/09 00:55:25;;;;;;;13.90;6.82;;;;;;;0.32;100.00;95026.50;1038998;28;20318;-64
2024/03/09 00:56:15;;;;;;;15.05;7.55;;;;;;;0.30;100.00;95034.44;1034753;28;20259;-66
2024/03/09 00:57:04;;;;;;;11.25;6.65;;;;;;;0.29;100.00;95032.09;1030797;28;20324;-66
2024/03/09 00:57:55;;;;;;;16.73;7.72;;;;;;;0.26;100.00;95032.50;1037951;28;20826;-67
2024/03/09 00:58:45;;;;;;;16.02;7.07;;;;;;;0.19;100.00;95024.84;1034757;28;20315;-66
2024/03/09 00:59:34;;;;;;;14.82;6.88;;;;;;;0.23;100.00;95034.53;1030370;28;20040;-66
2024/03/09 01:00:23;;;;;;;14.60;7.32;;;;;;;0.23;100.00;95037.13;1034447;28;20292;-67
2024/03/09 01:01:12;;;;;;;14.70;7.05;;;;;;;0.23;100.00;95036.31;1038003;28;20272;-66
2024/03/09 01:02:01;;;;;;;14.77;7.07;;;;;;;0.20;100.00;95034.97;1039410;28;20327;-67
2024/03/09 01:02:50;;;;;;;14.63;7.70;;;;;;;0.20;100.00;95031.56;1034735;28;20244;-66
2024/03/09 01:03:39;;;;;;;14.13;7.03;;;;;;;0.19;100.00;95028.22;1034818;28;20257;-66
2024/03/09 01:04:28;;;;;;;12.77;7.70;;;;;;;0.20;100.00;95029.81;1038480;28;20655;-65
2024/03/09 01:05:22;;;;;;;14.27;7.55;;;;;;;0.19;100.00;95030.00;1039151;28;20258;-66
2024/03/09 01:06:11;;;;;;;13.63;6.82;;;;;;;0.16;100.00;95031.22;1039090;28;20239;-66
2024/03/09 01:07:00;;;;;;;17.42;7.65;;;;;;;0.14;100.00;95030.66;1030728;28;20312;-66
2024/03/09 01:07:49;;;;;;;12.45;6.38;;;;;;;0.11;100.00;95025.94;1034437;28;20272;-67
2024/03/09 01:08:38;;;;;;;15.48;7.13;;;;;;;0.05;100.00;95011.31;1038513;28;20314;-65
2024/03/09 01:09:28;;;;;;;16.27;8.02;;;;;;;0.01;100.00;95020.47;1038660;28;20371;-66
2024/03/09 01:10:17;;;;;;;13.43;6.90;;;;;;;0.05;100.00;95026.00;1039901;28;20318;-65
2024/03/09 01:11:06;;;;;;;17.90;7.45;;;;;;;0.02;100.00;95032.38;1038799;28;20275;-68
2024/03/09 01:11:55;;;;;;;15.27;6.80;;;;;;;-0.02;100.00;95021.69;1039026;28;20295;-66
2024/03/09 01:12:44;;;;;;;11.25;6.88;;;;;;;-0.05;100.00;95016.97;1039557;28;20834;-65
2024/03/09 01:13:34;;;;;;;14.52;7.78;;;;;;;-0.04;100.00;95022.91;1038924;28;20319;-66
2024/03/09 01:14:26;;;;;;;13.02;6.78;;;;;;;-0.05;100.00;95026.50;1039657;28;20263;-66
2024/03/09 01:15:16;;;;;;;14.38;6.90;;;;;;;-0.11;100.00;95022.19;1039447;28;20298;-66
2024/03/09 01:16:05;;;;;;;12.02;7.05;;;;;;;-0.12;100.00;95023.19;1039379;28;20267;-66
2024/03/09 01:16:54;;;;;;;14.55;7.90;;;;;;;-0.15;100.00;95023.59;1039132;28;20323;-68
2024/03/09 01:17:43;;;;;;;15.18;7.68;;;;;;;-0.17;100.00;95023.03;1035286;28;20327;-67
2024/03/09 01:18:32;;;;;;;17.27;7.82;;;;;;;-0.21;100.00;95017.50;1038848;28;20673;-66
2024/03/09 01:19:21;;;;;;;15.23;8.02;;;;;;;-0.24;100.00;95018.72;1038609;28;20268;-66
2024/03/09 01:20:10;;;;;;;16.23;7.70;;;;;;;-0.26;100.00;95025.88;1039848;28;20275;-67
2024/03/09 01:21:00;;;;;;;12.23;7.35;;;;;;;-0.27;100.00;95024.31;1039585;28;20343;-66
2024/03/09 01:21:49;;;;;;;15.15;7.78;;;;;;;-0.30;100.00;95023.97;1040389;28;20303;-66
2024/03/09 01:22:42;;;;;;;15.38;7.60;;;;;;;-0.33;100.00;95027.75;1040280;28;20299;-68
2024/03/09 01:23:32;;;;;;;15.02;7.50;;;;;;;-0.35;100.00;95024.56;1040334;28;20287;-66
2024/03/09 01:24:21;;;;;;;16.67;8.32;;;;;;;-0.33;100.00;95014.84;1040175;28;20255;-66
2024/03/09 01:25:10;;;;;;;11.90;6.78;;;;;;;-0.35;100.00;95006.53;1040074;28;20295;-66
2024/03/09 01:26:00;;;;;;;15.05;7.28;;;;;;;-0.35;100.00;95006.53;1039990;28;20266;-66
2024/03/09 01:26:49;;;;;;;15.30;6.72;;;;;;;-0.38;100.00;95012.09;1032531;28;20588;-66
2024/03/09 01:27:38;;;;;;;14.60;7.25;;;;;;;-0.39;100.00;95005.38;1035518;28;20276;-66
2024/03/09 01:28:28;;;;;;;18.98;8.68;;;;;;;-0.40;100.00;95014.13;1035369;28;20314;-67
2024/03/09 01:29:18;;;;;;;17.30;8.00;;;;;;;-0.41;100.00;95017.69;1032046;28;20774;-66
2024/03/09 01:30:09;;;;;;;16.58;8.40;;;;;;;-0.48;100.00;95006.66;1035515;28;20699;-66
2024/03/09 01:31:00;;;;;;;14.30;7.28;;;;;;;-0.45;100.00;95013.97;1034698;28;20379;-66
2024/03/09 01:31:51;;;;;;;18.27;7.93;;;;;;;-0.47;100.00;95008.22;1035799;28;20329;-66
2024/03/09 01:32:43;;;;;;;17.75;8.32;;;;;;;-0.47;100.00;95018.53;1035591;28;20395;-66
2024/03/09 01:33:32;;;;;;;16.95;8.13;;;;;;;-0.47;100.00;95015.94;1031746;28;20184;-68
2024/03/09 01:34:22;;;;;;;14.73;7.47;;;;;;;-0.48;100.00;95011.81;1031561;28;20379;-66
2024/03/09 01:35:12;;;;;;;15.13;7.53;;;;;;;-0.48;100.00;95019.53;1035415;28;20310;-66
2024/03/09 01:36:02;;;;;;;13.75;7.65;;;;;;;-0.48;100.00;95012.59;1039052;28;20352;-67
2024/03/09 01:36:51;;;;;;;16.10;7.70;;;;;;;-0.45;100.00;95010.59;1036198;28;20073;-67
2024/03/09 01:37:40;;;;;;;13.57;7.70;;;;;;;-0.44;100.00;95015.53;1035504;28;20428;-66
2024/03/09 01:38:29;;;;;;;17.60;8.40;;;;;;;-0.44;100.00;95007.78;1035649;28;20308;-66
2024/03/09 01:39:19;;;;;;;15.27;7.95;;;;;;;-0.43;100.00;95011.97;1034887;28;20563;-67
2024/03/09 01:40:10;;;;;;;16.15;8.38;;;;;;;-0.44;100.00;95012.94;1038106;28;20295;-67
2024/03/09 01:40:59;;;;;;;17.75;8.60;;;;;;;-0.43;100.00;95014.53;1038652;28;20259;-66
2024/03/09 01:41:50;;;;;;;19.60;8.38;;;;;;;-0.44;100.00;95012.94;1035297;28;20300;-65
2024/03/09 01:42:39;;;;;;;16.27;7.85;;;;;;;-0.44;100.00;95012.94;1038876;28;20366;-67
2024/03/09 01:43:29;;;;;;;17.02;7.95;;;;;;;-0.40;100.00;95016.69;1035206;28;20091;-66
2024/03/09 01:44:21;;;;;;;17.20;8.52;;;;;;;-0.40;100.00;95014.13;1038308;28;20260;-67
2024/03/09 01:45:10;;;;;;;19.30;8.65;;;;;;;-0.41;100.00;95014.31;1039204;28;20863;-66
2024/03/09 01:46:02;;;;;;;18.77;8.88;;;;;;;-0.41;100.00;95017.69;1035736;28;20288;-66
2024/03/09 01:46:51;;;;;;;20.42;9.88;;;;;;;-0.46;100.00;95009.03;1032118;28;20276;-66
2024/03/09 01:47:41;;;;;;;16.10;9.05;;;;;;;-0.42;100.00;95018.69;1027036;28;20257;-66
2024/03/09 01:48:30;;;;;;;16.13;8.85;;;;;;;-0.48;100.00;95007.44;1027031;28;20337;-66
2024/03/09 01:49:19;;;;;;;18.25;9.70;;;;;;;-0.44;100.00;95007.00;1026831;28;20288;-66
2024/03/09 01:50:12;;;;;;;16.67;8.65;;;;;;;-0.44;100.00;95015.53;1022746;29;20318;-66
2024/03/09 01:51:04;;;;;;;19.85;9.00;;;;;;;-0.46;100.00;95014.97;1030532;28;20296;-66
2024/03/09 01:51:53;;;;;;;21.27;8.95;;;;;;;-0.47;100.00;95010.78;1035400;28;20878;-68
2024/03/09 01:52:44;;;;;;;15.65;8.38;;;;;;;-0.46;100.00;95009.81;1031292;28;20304;-66
2024/03/09 01:53:35;;;;;;;19.85;7.88;;;;;;;-0.45;100.00;95011.38;1031496;28;20300;-65
2024/03/09 01:54:24;;;;;;;19.33;8.57;;;;;;;-0.47;100.00;95010.78;1031246;28;20041;-66
2024/03/09 01:55:13;;;;;;;17.88;8.32;;;;;;;-0.54;100.00;95002.34;1035030;28;21151;-68
2024/03/09 01:56:03;;;;;;;13.98;7.80;;;;;;;-0.50;100.00;95004.28;1030920;28;20372;-66
2024/03/09 01:56:52;;;;;;;16.02;8.02;;;;;;;-0.51;100.00;95004.50;1037458;28;20419;-66
2024/03/09 01:57:42;;;;;;;16.98;8.35;;;;;;;-0.53;100.00;95001.34;1031453;28;20121;-66
2024/03/09 01:58:33;;;;;;;16.70;8.40;;;;;;;-0.53;100.00;94998.78;1031283;28;20325;-68
2024/03/09 01:59:22;;;;;;;17.30;7.50;;;;;;;-0.58;100.00;94999.38;1034766;28;20286;-66
2024/03/09 02:00:14;;;;;;;17.23;7.88;;;;;;;-0.56;100.00;95002.56;1027686;28;20910;-66
2024/03/09 02:01:21;;;;;;;16.85;7.60;;;;;;;-0.59;100.00;95002.97;1030734;28;20260;-66
2024/03/09 02:02:10;;;;;;;17.67;7.85;;;;;;;-0.60;100.00;95001.41;1031377;28;20716;-66
2024/03/09 02:03:00;;;;;;;13.23;6.90;;;;;;;-0.61;100.00;95001.59;1027316;28;20298;-66
2024/03/09 02:03:53;;;;;;;18.70;8.48;;;;;;;-0.62;100.00;95000.81;1035418;28;20360;-66
2024/03/09 02:04:44;;;;;;;18.77;7.65;;;;;;;-0.65;100.00;95003.81;1040052;28;20294;-66
2024/03/09 02:05:33;;;;;;;18.35;8.20;;;;;;;-0.65;100.00;95001.25;1039506;28;20259;-65
2024/03/09 02:06:29;;;;;;;16.20;8.25;;;;;;;-0.65;100.00;95005.59;1035192;28;20623;-64
2024/03/09 02:07:18;;;;;;;14.13;7.22;;;;;;;-0.65;100.00;95005.59;1035074;28;20807;-66
2024/03/09 02:08:07;;;;;;;13.63;7.25;;;;;;;-0.66;100.00;95002.25;1035460;28;20311;-66
2024/03/09 02:08:56;;;;;;;16.40;7.93;;;;;;;-0.66;100.00;95009.19;1035055;28;20406;-66
2024/03/09 02:09:46;;;;;;;17.00;8.20;;;;;;;-0.68;100.00;94995.72;1039161;28;20945;-67
2024/03/09 02:10:35;;;;;;;19.50;8.18;;;;;;;-0.66;100.00;95001.47;1035116;28;20364;-66
2024/03/09 02:11:29;;;;;;;17.58;7.80;;;;;;;-0.66;100.00;95002.25;1030999;28;20256;-66
2024/03/09 02:12:19;;;;;;;16.80;7.68;;;;;;;-0.69;100.00;94999.31;1031052;28;20336;-65
2024/03/09 02:13:10;;;;;;;18.13;8.07;;;;;;;-0.69;100.00;95000.09;1027074;28;20389;-67
2024/03/09 02:13:58;;;;;;;18.58;8.25;;;;;;;-0.72;100.00;94996.13;1031080;28;20049;-66
2024/03/09 02:14:48;;;;;;;14.57;7.50;;;;;;;-0.74;100.00;95003.31;1030891;28;20505;-66
2024/03/09 02:15:38;;;;;;;13.82;7.30;;;;;;;-0.75;100.00;94996.56;1034904;28;20284;-68
2024/03/09 02:16:28;;;;;;;16.85;8.13;;;;;;;-0.77;100.00;95003.72;1035175;28;20256;-67
2024/03/09 02:17:18;;;;;;;15.82;8.10;;;;;;;-0.75;100.00;94999.13;1035206;28;20128;-67
2024/03/09 02:18:07;;;;;;;14.10;7.75;;;;;;;-0.76;100.00;95005.28;1034640;28;20201;-66
2024/03/09 02:18:57;;;;;;;17.20;8.00;;;;;;;-0.76;100.00;94999.34;1035049;28;20256;-66
2024/03/09 02:19:46;;;;;;;18.50;8.20;;;;;;;-0.76;100.00;94994.97;1034620;28;20303;-65
2024/03/09 02:20:37;;;;;;;15.10;7.20;;;;;;;-0.77;100.00;94997.75;1030626;28;20675;-66
2024/03/09 02:21:27;;;;;;;15.65;7.72;;;;;;;-0.81;100.00;94997.38;1034911;28;20304;-67
2024/03/09 02:22:17;;;;;;;18.80;7.60;;;;;;;-0.76;100.00;94999.34;1030572;28;20489;-65
2024/03/09 02:23:09;;;;;;;17.48;8.27;;;;;;;-0.78;100.00;94991.03;1034976;28;20033;-65
2024/03/09 02:24:05;;;;;;;14.20;7.50;;;;;;;-0.74;100.00;94994.75;1035492;28;20037;-65
2024/03/09 02:24:58;;;;;;;15.50;8.10;;;;;;;-0.73;100.00;94984.25;1035399;28;20356;-65
2024/03/09 02:25:47;;;;;;;16.30;8.85;;;;;;;-0.73;100.00;94983.47;1031452;28;20268;-66
2024/03/09 02:26:39;;;;;;;15.43;7.32;;;;;;;-0.75;100.00;94978.53;1035485;28;20763;-66
2024/03/09 02:27:28;;;;;;;17.95;7.85;;;;;;;-0.74;100.00;94976.72;1039634;28;20390;-66
2024/03/09 02:28:18;;;;;;;15.43;7.85;;;;;;;-0.75;100.00;94975.94;1035445;28;20355;-66
2024/03/09 02:29:08;;;;;;;17.55;8.48;;;;;;;-0.77;100.00;94972.00;1039307;28;20275;-64
2024/03/09 02:29:57;;;;;;;16.52;8.30;;;;;;;-0.79;100.00;94972.22;1039782;28;20290;-65
2024/03/09 02:30:48;;;;;;;19.05;9.63;;;;;;;-0.80;100.00;94973.22;1033139;28;20253;-67
2024/03/09 02:31:37;;;;;;;17.33;7.72;;;;;;;-0.80;100.00;94973.22;1035283;28;20332;-65
2024/03/09 02:32:29;;;;;;;15.80;8.13;;;;;;;-0.79;100.00;94966.28;1038490;28;20283;-65
2024/03/09 02:33:18;;;;;;;18.02;8.45;;;;;;;-0.83;100.00;94976.22;1039574;28;20655;-66
2024/03/09 02:34:07;;;;;;;17.15;8.10;;;;;;;-0.82;100.00;94975.22;1035284;28;20291;-66
2024/03/09 02:34:56;;;;;;;18.33;8.18;;;;;;;-0.79;100.00;94974.00;1038782;28;20259;-65
2024/03/09 02:35:46;;;;;;;16.92;8.30;;;;;;;-0.80;100.00;94962.94;1039909;28;20295;-65
2024/03/09 02:36:38;;;;;;;15.75;7.93;;;;;;;-0.77;100.00;94970.25;1039430;28;20338;-66
2024/03/09 02:37:27;;;;;;;18.23;7.75;;;;;;;-0.77;100.00;94970.25;1039660;28;20255;-65
2024/03/09 02:38:17;;;;;;;19.55;8.40;;;;;;;-0.77;100.00;94977.16;1039072;28;20288;-67
2024/03/09 02:39:09;;;;;;;16.48;8.88;;;;;;;-0.76;100.00;94976.16;1039499;28;20260;-65
2024/03/09 02:39:58;;;;;;;17.63;8.85;;;;;;;-0.77;100.00;94967.66;1039435;28;20068;-65
2024/03/09 02:40:47;;;;;;;14.43;6.97;;;;;;;-0.78;100.00;94971.22;1039594;28;20295;-65
2024/03/09 02:41:36;;;;;;;18.40;8.60;;;;;;;-0.78;100.00;94968.63;1038923;28;20267;-66
2024/03/09 02:42:25;;;;;;;15.73;8.73;;;;;;;-0.78;100.00;94975.59;1035350;28;20284;-66
2024/03/09 02:43:16;;;;;;;16.83;8.23;;;;;;;-0.77;100.00;94967.66;1036342;28;20244;-66
2024/03/09 02:44:05;;;;;;;18.10;7.60;;;;;;;-0.76;100.00;94976.97;1040028;28;20790;-65
2024/03/09 02:44:54;;;;;;;17.75;8.63;;;;;;;-0.75;100.00;94970.81;1035319;28;20148;-65
2024/03/09 02:45:43;;;;;;;17.90;8.55;;;;;;;-0.72;100.00;94975.53;1031602;28;20288;-66
2024/03/09 02:46:33;;;;;;;17.48;8.18;;;;;;;-0.72;100.00;94969.59;1031439;28;20764;-65
2024/03/09 02:47:22;;;;;;;16.67;8.20;;;;;;;-0.71;100.00;94966.00;1038839;28;20322;-66
2024/03/09 02:48:11;;;;;;;22.13;8.02;;;;;;;-0.67;100.00;94971.53;1035802;28;20288;-65
2024/03/09 02:49:00;;;;;;;17.85;8.70;;;;;;;-0.66;100.00;94970.56;1034215;28;20268;-66
2024/03/09 02:49:49;;;;;;;20.65;9.73;;;;;;;-0.67;100.00;94964.63;1035120;28;20299;-65
2024/03/09 02:50:40;;;;;;;20.15;7.88;;;;;;;-0.66;100.00;94975.69;1038679;28;20264;-65
2024/03/09 02:51:29;;;;;;;17.40;8.85;;;;;;;-0.63;100.00;94964.97;1039020;28;20671;-66
2024/03/09 02:52:20;;;;;;;17.20;8.68;;;;;;;-0.65;100.00;94969.53;1039311;28;20099;-65
2024/03/09 02:53:09;;;;;;;15.88;7.97;;;;;;;-0.65;100.00;94965.19;1039682;28;20319;-65
2024/03/09 02:53:58;;;;;;;19.60;9.10;;;;;;;-0.64;100.00;94968.53;1039340;28;20353;-66
2024/03/09 02:54:48;;;;;;;13.98;7.72;;;;;;;-0.66;100.00;94970.56;1039449;28;20779;-66
2024/03/09 02:55:38;;;;;;;13.77;7.55;;;;;;;-0.66;100.00;94965.41;1039672;28;20762;-66
2024/03/09 02:56:27;;;;;;;16.85;8.80;;;;;;;-0.67;100.00;94967.19;1039658;28;20052;-66
2024/03/09 02:57:17;;;;;;;16.45;8.38;;;;;;;-0.66;100.00;94967.97;1039219;28;20624;-67
2024/03/09 02:58:05;;;;;;;18.58;7.90;;;;;;;-0.68;100.00;94963.03;1038890;28;20290;-66
2024/03/09 02:58:54;;;;;;;14.98;8.20;;;;;;;-0.70;100.00;94959.88;1039242;28;20309;-66
2024/03/09 02:59:44;;;;;;;16.38;8.50;;;;;;;-0.72;100.00;94960.06;1038889;28;20327;-66
2024/03/09 03:00:33;;;;;;;14.43;7.82;;;;;;;-0.74;100.00;94958.69;1035122;28;20355;-65
2024/03/09 03:01:23;;;;;;;17.23;8.25;;;;;;;-0.75;100.00;94960.50;1038786;28;20326;-66
2024/03/09 03:03:45;;;;;;;14.93;8.15;;;;;;;-0.76;100.00;94958.94;1039614;28;20045;-64
2024/03/09 03:04:34;;;;;;;18.52;7.65;;;;;;;-0.78;100.00;94954.97;1039813;28;20811;-67
2024/03/09 03:05:26;;;;;;;18.67;7.72;;;;;;;-0.79;100.00;94951.63;1039553;28;20314;-66
2024/03/09 03:06:19;;;;;;;17.52;8.10;;;;;;;-0.78;100.00;94958.34;1039381;28;20382;-66
2024/03/09 03:07:09;;;;;;;18.92;8.30;;;;;;;-0.78;100.00;94950.63;1039547;28;20264;-65
2024/03/09 03:07:58;;;;;;;18.75;8.13;;;;;;;-0.78;100.00;94954.97;1035292;28;20842;-65
2024/03/09 03:08:53;;;;;;;20.73;8.18;;;;;;;-0.77;100.00;94956.53;1034786;28;20092;-65
2024/03/09 03:09:44;;;;;;;17.33;8.07;;;;;;;-0.77;100.00;94957.34;1035231;28;20374;-66
2024/03/09 03:10:33;;;;;;;14.10;7.75;;;;;;;-0.80;100.00;94947.47;1039417;28;20762;-65
2024/03/09 03:11:22;;;;;;;18.13;8.80;;;;;;;-0.76;100.00;94958.94;1038675;28;20789;-66
2024/03/09 03:12:12;;;;;;;19.85;8.30;;;;;;;-0.75;100.00;94957.91;1039477;28;20318;-66
2024/03/09 03:13:01;;;;;;;19.00;8.90;;;;;;;-0.73;100.00;94960.31;1039849;28;20251;-65
2024/03/09 03:13:51;;;;;;;16.58;8.00;;;;;;;-0.73;100.00;94958.50;1039886;28;20365;-65
2024/03/09 03:14:41;;;;;;;16.42;7.85;;;;;;;-0.73;100.00;94958.50;1039560;28;20773;-63
2024/03/09 03:15:30;;;;;;;17.92;7.78;;;;;;;-0.74;100.00;94954.38;1036024;28;20117;-66
2024/03/09 03:16:25;;;;;;;15.75;7.97;;;;;;;-0.79;100.00;94949.03;1040248;28;20040;-70
2024/03/09 03:17:14;;;;;;;14.15;7.72;;;;;;;-0.72;100.00;94960.06;1036746;28;20297;-66
2024/03/09 03:18:07;;;;;;;16.27;7.65;;;;;;;-0.71;100.00;94961.66;1040414;28;20248;-66
2024/03/09 03:18:57;;;;;;;16.33;7.88;;;;;;;-0.69;100.00;94973.53;1044697;28;20276;-66
2024/03/09 03:19:46;;;;;;;14.13;8.20;;;;;;;-0.69;100.00;94973.53;1044590;28;20268;-66
2024/03/09 03:20:35;;;;;;;16.25;8.60;;;;;;;-0.71;100.00;94979.69;1044355;28;20300;-66
2024/03/09 03:21:25;;;;;;;17.02;8.30;;;;;;;-0.71;100.00;94982.25;1044537;28;20280;-71
2024/03/09 03:22:14;;;;;;;15.68;8.27;;;;;;;-0.70;100.00;94977.91;1040085;28;20272;-73
2024/03/09 03:23:03;;;;;;;14.95;8.63;;;;;;;-0.72;100.00;94985.84;1043197;28;20287;-68
2024/03/09 03:23:53;;;;;;;14.63;7.80;;;;;;;-0.71;100.00;94978.88;1043633;28;20267;-69
2024/03/09 03:24:42;;;;;;;15.38;8.05;;;;;;;-0.72;100.00;94980.69;1042111;28;20279;-66
2024/03/09 03:25:31;;;;;;;16.48;8.05;;;;;;;-0.69;100.00;94978.69;1039583;28;20374;-67
2024/03/09 03:26:20;;;;;;;15.35;8.02;;;;;;;-0.66;100.00;94975.69;1039314;28;20922;-65
2024/03/09 03:27:10;;;;;;;16.20;8.30;;;;;;;-0.68;100.00;94981.03;1038492;28;20817;-64
2024/03/09 03:27:59;;;;;;;17.00;8.88;;;;;;;-0.66;100.00;94984.22;1036392;28;20267;-68
2024/03/09 03:28:49;;;;;;;18.58;8.85;;;;;;;-0.64;100.00;94981.41;1034681;28;20328;-66
2024/03/09 03:29:38;;;;;;;18.70;8.75;;;;;;;-0.64;100.00;94981.41;1034170;28;20332;-66
2024/03/09 03:30:27;;;;;;;17.90;9.07;;;;;;;-0.65;100.00;94972.13;1038286;28;20127;-66
2024/03/09 03:31:18;;;;;;;23.00;9.23;;;;;;;-0.67;100.00;94976.69;1037242;28;20331;-66
2024/03/09 03:32:07;;;;;;;21.10;8.18;;;;;;;-0.67;100.00;94982.66;1038148;28;20255;-65
2024/03/09 03:32:56;;;;;;;12.95;7.57;;;;;;;-0.68;100.00;94985.41;1039012;28;20098;-65
2024/03/09 03:33:46;;;;;;;12.48;7.55;;;;;;;-0.72;100.00;94985.06;1038930;28;20260;-66
2024/03/09 03:34:37;;;;;;;15.00;7.38;;;;;;;-0.74;100.00;94992.19;1034519;28;20625;-67
2024/03/09 03:35:26;;;;;;;;;;;;;;;-0.72;100.00;94998.72;1027337;28;20269;-66
2024/03/09 03:36:18;;;;;;;17.27;7.82;;;;;;;-0.75;100.00;95006.06;1030283;28;20593;-66
2024/03/09 03:37:07;;;;;;;15.32;7.63;;;;;;;-0.79;100.00;95013.44;1034567;28;20323;-66
2024/03/09 03:37:59;;;;;;;17.75;7.85;;;;;;;-0.79;100.00;95008.28;1034786;28;20337;-66
2024/03/09 03:38:48;;;;;;;14.55;7.70;;;;;;;-0.82;100.00;94998.41;1038843;28;20395;-66
2024/03/09 03:39:38;;;;;;;14.63;8.65;;;;;;;-0.78;100.00;95004.69;1034670;28;20432;-67
2024/03/09 03:40:27;;;;;;;14.80;8.30;;;;;;;-0.76;100.00;95005.28;1034567;28;20256;-66
2024/03/09 03:41:18;;;;;;;16.45;7.95;;;;;;;-0.73;100.00;95004.09;1037665;28;20894;-65
2024/03/09 03:42:07;;;;;;;16.83;8.60;;;;;;;-0.72;100.00;95009.00;1039247;28;20328;-67
2024/03/09 03:42:57;;;;;;;20.33;8.13;;;;;;;-0.76;100.00;95007.88;1038907;28;20263;-66
2024/03/09 03:43:46;;;;;;;17.48;7.97;;;;;;;-0.75;100.00;95012.00;1030812;28;20768;-66
2024/03/09 03:44:38;;;;;;;17.55;8.32;;;;;;;-0.76;100.00;95014.81;1030702;28;20124;-67
2024/03/09 03:45:27;;;;;;;14.57;7.55;;;;;;;-0.76;100.00;95010.44;1038883;28;20247;-67
2024/03/09 03:46:16;;;;;;;13.85;7.45;;;;;;;-0.79;100.00;95000.56;1039214;28;20259;-66
2024/03/09 03:47:05;;;;;;;15.98;8.38;;;;;;;-0.73;100.00;95004.09;1038677;28;20888;-67
2024/03/09 03:47:55;;;;;;;18.60;8.70;;;;;;;-0.71;100.00;95000.28;1038832;28;20358;-66
2024/03/09 03:48:44;;;;;;;17.02;8.07;;;;;;;-0.71;100.00;94995.13;1038173;28;20449;-66
2024/03/09 03:49:34;;;;;;;18.38;8.45;;;;;;;-0.69;100.00;94997.50;1034578;28;20260;-67
2024/03/09 03:50:23;;;;;;;19.90;8.93;;;;;;;-0.67;100.00;94998.09;1034605;28;20272;-66
2024/03/09 03:51:13;;;;;;;14.95;8.20;;;;;;;-0.69;100.00;94989.78;1037539;28;20830;-64
2024/03/09 03:52:03;;;;;;;18.48;8.75;;;;;;;-0.67;100.00;94985.22;1038132;28;20287;-64